KFOE/FOE METAR and TAF weather

Enter ICAO airport designator
Station Type Date Time Source
KFOE METAR 2019/08/17 11:29 UTC NOAA

KFOE 171129Z 11011KT 10SM BKN100 OVC120 20/18 A2990 RMK AO2 WSHFT 1059 LTG DSNT E AND SE RAE19 TSE02 PRESFR LTG OCNL IC CC CG P0006 T02000178


Station Type Date Time Source
KFOE Decoded METAR 2019/08/17 11:29 UTC NOAA

Station name not available
Aug 17, 2019 - 07:29 AM EDT / 2019.08.17 1129 UTC
Wind: from the ESE (110 degrees) at 13 MPH (11 KT):0
Visibility: 10 mile(s):0
Sky conditions: overcast
Weather: Lightning observed
Precipitation last hour: 0.06 inches
Temperature: 68.0 F (20.0 C)
Dew Point: 64.0 F (17.8 C)
Relative Humidity: 87%
Pressure (altimeter): 29.9 in. Hg (1012 hPa)
Pressure tendency: falling rapidly
ob: KFOE 171129Z 11011KT 10SM BKN100 OVC120 20/18 A2990 RMK AO2 WSHFT 1059 LTG DSNT E AND SE RAE19 TSE02 PRESFR LTG OCNL IC CC CG P0006 T02000178
cycle: 11

Station Type Date Time Source
KFOE TAF 2019/08/17 12:36 UTC NOAA

TAF KFOE 171135Z 1712/1812 11010KT P6SM VCSH SCT012 OVC120
FM171500 17011KT P6SM BKN120
FM171900 16010KT P6SM SCT150
FM180800 19009KT P6SM VCTS BKN080CB

Example: see airport list